sensor_id;sensor_type;location;lat;lon;timestamp;pressure;altitude;pressure_sealevel;temperature;humidity
59103;BME280;43999;51.660;5.616;2022-08-19T00:02:12;101146.38;;;19.45;100.00
59103;BME280;43999;51.660;5.616;2022-08-19T00:04:40;101136.97;;;19.41;100.00
59103;BME280;43999;51.660;5.616;2022-08-19T00:07:07;101145.06;;;19.39;100.00
59103;BME280;43999;51.660;5.616;2022-08-19T00:09:35;101146.06;;;19.38;100.00
59103;BME280;43999;51.660;5.616;2022-08-19T00:12:02;101140.03;;;19.36;100.00
59103;BME280;43999;51.660;5.616;2022-08-19T00:14:31;101147.28;;;19.34;100.00
59103;BME280;43999;51.660;5.616;2022-08-19T00:16:59;101142.13;;;19.32;100.00
59103;BME280;43999;51.660;5.616;2022-08-19T00:19:28;101131.63;;;19.31;100.00
59103;BME280;43999;51.660;5.616;2022-08-19T00:21:55;101135.38;;;19.28;100.00
59103;BME280;43999;51.660;5.616;2022-08-19T00:24:23;101147.81;;;19.28;100.00
59103;BME280;43999;51.660;5.616;2022-08-19T00:26:52;101142.91;;;19.23;100.00
59103;BME280;43999;51.660;5.616;2022-08-19T00:29:21;101145.00;;;19.20;100.00
59103;BME280;43999;51.660;5.616;2022-08-19T00:31:51;101141.88;;;19.14;100.00
59103;BME280;43999;51.660;5.616;2022-08-19T00:34:24;101149.13;;;19.12;100.00
59103;BME280;43999;51.660;5.616;2022-08-19T00:36:56;101156.53;;;19.09;100.00
59103;BME280;43999;51.660;5.616;2022-08-19T00:39:24;101151.63;;;19.04;100.00
59103;BME280;43999;51.660;5.616;2022-08-19T00:41:51;101162.50;;;19.01;100.00
59103;BME280;43999;51.660;5.616;2022-08-19T00:44:26;101154.91;;;18.96;100.00
59103;BME280;43999;51.660;5.616;2022-08-19T00:46:58;101159.75;;;18.91;100.00
59103;BME280;43999;51.660;5.616;2022-08-19T00:49:49;101162.19;;;18.83;100.00
59103;BME280;43999;51.660;5.616;2022-08-19T00:52:24;101151.25;;;18.76;100.00
59103;BME280;43999;51.660;5.616;2022-08-19T00:54:57;101148.97;;;18.72;100.00
59103;BME280;43999;51.660;5.616;2022-08-19T00:57:39;101146.59;;;18.69;100.00
59103;BME280;43999;51.660;5.616;2022-08-19T01:00:13;101152.16;;;18.66;100.00
59103;BME280;43999;51.660;5.616;2022-08-19T01:02:43;101153.34;;;18.61;100.00
59103;BME280;43999;51.660;5.616;2022-08-19T01:05:18;101143.13;;;18.57;100.00
59103;BME280;43999;51.660;5.616;2022-08-19T01:07:50;101140.03;;;18.52;100.00
59103;BME280;43999;51.660;5.616;2022-08-19T01:10:23;101148.94;;;18.51;100.00
59103;BME280;43999;51.660;5.616;2022-08-19T01:12:55;101143.19;;;18.45;100.00
59103;BME280;43999;51.660;5.616;2022-08-19T01:15:41;101138.00;;;18.44;100.00
59103;BME280;43999;51.660;5.616;2022-08-19T01:18:14;101143.31;;;18.44;100.00
59103;BME280;43999;51.660;5.616;2022-08-19T01:20:44;101152.22;;;18.43;100.00
59103;BME280;43999;51.660;5.616;2022-08-19T01:23:12;101144.25;;;18.43;100.00
59103;BME280;43999;51.660;5.616;2022-08-19T01:25:49;101154.03;;;18.42;100.00
59103;BME280;43999;51.660;5.616;2022-08-19T01:28:26;101151.41;;;18.42;100.00
59103;BME280;43999;51.660;5.616;2022-08-19T01:31:08;101149.00;;;18.39;100.00
59103;BME280;43999;51.660;5.616;2022-08-19T01:33:56;101154.56;;;18.36;100.00
59103;BME280;43999;51.660;5.616;2022-08-19T01:36:30;101148.06;;;18.29;100.00
59103;BME280;43999;51.660;5.616;2022-08-19T01:39:08;101154.72;;;18.23;100.00
59103;BME280;43999;51.660;5.616;2022-08-19T01:41:38;101149.53;;;18.22;100.00
59103;BME280;43999;51.660;5.616;2022-08-19T01:44:08;101157.00;;;18.17;100.00
59103;BME280;43999;51.660;5.616;2022-08-19T01:46:47;101157.88;;;18.17;100.00
59103;BME280;43999;51.660;5.616;2022-08-19T01:49:18;101150.16;;;18.14;100.00
59103;BME280;43999;51.660;5.616;2022-08-19T01:51:49;101153.06;;;18.11;100.00
59103;BME280;43999;51.660;5.616;2022-08-19T01:54:18;101150.53;;;18.09;100.00
59103;BME280;43999;51.660;5.616;2022-08-19T01:57:00;101158.63;;;18.08;100.00
59103;BME280;43999;51.660;5.616;2022-08-19T01:59:35;101162.22;;;18.07;100.00
59103;BME280;43999;51.660;5.616;2022-08-19T02:02:05;101158.84;;;18.05;100.00
59103;BME280;43999;51.660;5.616;2022-08-19T02:04:36;101156.34;;;18.03;100.00
59103;BME280;43999;51.660;5.616;2022-08-19T02:07:06;101165.25;;;18.02;100.00
59103;BME280;43999;51.660;5.616;2022-08-19T02:09:35;101170.66;;;18.01;100.00
59103;BME280;43999;51.660;5.616;2022-08-19T02:12:04;101162.97;;;17.98;100.00
59103;BME280;43999;51.660;5.616;2022-08-19T02:14:36;101171.03;;;17.96;100.00
59103;BME280;43999;51.660;5.616;2022-08-19T02:17:04;101179.22;;;17.93;100.00
59103;BME280;43999;51.660;5.616;2022-08-19T02:19:31;101173.94;;;17.93;100.00
59103;BME280;43999;51.660;5.616;2022-08-19T02:21:59;101177.53;;;17.92;100.00
59103;BME280;43999;51.660;5.616;2022-08-19T02:24:27;101172.34;;;17.90;100.00
59103;BME280;43999;51.660;5.616;2022-08-19T02:26:55;101162.63;;;17.91;100.00
59103;BME280;43999;51.660;5.616;2022-08-19T02:29:22;101162.63;;;17.91;100.00
59103;BME280;43999;51.660;5.616;2022-08-19T02:31:50;101160.69;;;17.93;100.00
59103;BME280;43999;51.660;5.616;2022-08-19T02:34:20;101165.97;;;17.93;100.00
59103;BME280;43999;51.660;5.616;2022-08-19T02:36:47;101177.41;;;17.94;100.00
59103;BME280;43999;51.660;5.616;2022-08-19T02:39:18;101168.88;;;17.90;100.00
59103;BME280;43999;51.660;5.616;2022-08-19T02:41:46;101177.66;;;17.90;100.00
59103;BME280;43999;51.660;5.616;2022-08-19T02:44:13;101179.34;;;17.91;100.00
59103;BME280;43999;51.660;5.616;2022-08-19T02:46:57;101181.28;;;17.89;100.00
59103;BME280;43999;51.660;5.616;2022-08-19T02:49:24;101181.28;;;17.89;100.00
59103;BME280;43999;51.660;5.616;2022-08-19T02:51:52;101184.78;;;17.90;100.00
59103;BME280;43999;51.660;5.616;2022-08-19T02:54:19;101188.47;;;17.87;100.00
59103;BME280;43999;51.660;5.616;2022-08-19T02:56:46;101179.81;;;17.85;100.00
59103;BME280;43999;51.660;5.616;2022-08-19T02:59:14;101182.59;;;17.84;100.00
59103;BME280;43999;51.660;5.616;2022-08-19T03:01:42;101181.63;;;17.85;100.00
59103;BME280;43999;51.660;5.616;2022-08-19T03:04:12;101179.09;;;17.83;100.00
59103;BME280;43999;51.660;5.616;2022-08-19T03:06:45;101179.34;;;17.80;100.00
59103;BME280;43999;51.660;5.616;2022-08-19T03:09:14;101179.59;;;17.77;100.00
59103;BME280;43999;51.660;5.616;2022-08-19T03:11:42;101182.59;;;17.72;100.00
59103;BME280;43999;51.660;5.616;2022-08-19T03:14:10;101177.66;;;17.68;100.00
59103;BME280;43999;51.660;5.616;2022-08-19T03:16:46;101175.38;;;17.63;100.00
59103;BME280;43999;51.660;5.616;2022-08-19T03:19:18;101188.00;;;17.60;100.00
59103;BME280;43999;51.660;5.616;2022-08-19T03:21:49;101185.47;;;17.58;100.00
59103;BME280;43999;51.660;5.616;2022-08-19T03:24:18;101188.00;;;17.60;100.00
59103;BME280;43999;51.660;5.616;2022-08-19T03:26:54;101192.47;;;17.59;100.00
59103;BME280;43999;51.660;5.616;2022-08-19T03:29:28;101186.22;;;17.60;100.00
59103;BME280;43999;51.660;5.616;2022-08-19T03:32:04;101180.03;;;17.60;100.00
59103;BME280;43999;51.660;5.616;2022-08-19T03:34:36;101187.03;;;17.61;100.00
59103;BME280;43999;51.660;5.616;2022-08-19T03:37:09;101184.50;;;17.59;100.00
59103;BME280;43999;51.660;5.616;2022-08-19T03:39:40;101185.47;;;17.58;100.00
59103;BME280;43999;51.660;5.616;2022-08-19T03:42:10;101182.09;;;17.56;100.00
59103;BME280;43999;51.660;5.616;2022-08-19T03:44:59;101180.41;;;17.55;100.00
59103;BME280;43999;51.660;5.616;2022-08-19T03:47:26;101184.16;;;17.52;100.00
59103;BME280;43999;51.660;5.616;2022-08-19T03:49:53;101178.13;;;17.50;100.00
59103;BME280;43999;51.660;5.616;2022-08-19T03:52:21;101173.91;;;17.48;100.00
59103;BME280;43999;51.660;5.616;2022-08-19T03:54:48;101171.28;;;17.48;100.00
59103;BME280;43999;51.660;5.616;2022-08-19T03:57:15;101166.09;;;17.46;100.00
59103;BME280;43999;51.660;5.616;2022-08-19T03:59:43;101157.16;;;17.47;100.00
59103;BME280;43999;51.660;5.616;2022-08-19T04:02:12;101167.75;;;17.47;100.00
59103;BME280;43999;51.660;5.616;2022-08-19T04:04:42;101177.41;;;17.48;100.00
59103;BME280;43999;51.660;5.616;2022-08-19T04:07:13;101179.34;;;17.46;100.00
59103;BME280;43999;51.660;5.616;2022-08-19T04:09:48;101185.81;;;17.42;100.00
59103;BME280;43999;51.660;5.616;2022-08-19T04:12:17;101187.63;;;17.42;100.00
59103;BME280;43999;51.660;5.616;2022-08-19T04:14:46;101186.78;;;17.41;100.00
59103;BME280;43999;51.660;5.616;2022-08-19T04:17:14;101180.75;;;17.39;100.00
59103;BME280;43999;51.660;5.616;2022-08-19T04:19:41;101185.34;;;17.37;100.00
59103;BME280;43999;51.660;5.616;2022-08-19T04:22:09;101171.59;;;17.32;100.00
59103;BME280;43999;51.660;5.616;2022-08-19T04:24:38;101181.81;;;17.25;100.00
59103;BME280;43999;51.660;5.616;2022-08-19T04:27:06;101177.00;;;17.19;100.00
59103;BME280;43999;51.660;5.616;2022-08-19T04:29:34;101173.16;;;17.12;100.00
59103;BME280;43999;51.660;5.616;2022-08-19T04:32:02;101169.16;;;17.06;100.00
59103;BME280;43999;51.660;5.616;2022-08-19T04:34:34;101159.63;;;17.03;100.00
59103;BME280;43999;51.660;5.616;2022-08-19T04:37:23;101165.03;;;17.02;100.00
59103;BME280;43999;51.660;5.616;2022-08-19T04:39:51;101163.38;;;17.01;100.00
59103;BME280;43999;51.660;5.616;2022-08-19T04:42:37;101160.84;;;16.99;100.00
59103;BME280;43999;51.660;5.616;2022-08-19T04:45:14;101167.91;;;16.99;100.00
59103;BME280;43999;51.660;5.616;2022-08-19T04:47:44;101163.63;;;16.98;100.00
59103;BME280;43999;51.660;5.616;2022-08-19T04:50:26;101170.91;;;16.94;100.00
59103;BME280;43999;51.660;5.616;2022-08-19T04:52:53;101171.03;;;16.93;100.00
59103;BME280;43999;51.660;5.616;2022-08-19T04:55:23;101172.84;;;16.92;100.00
59103;BME280;43999;51.660;5.616;2022-08-19T04:57:55;101178.38;;;16.89;100.00
59103;BME280;43999;51.660;5.616;2022-08-19T05:00:23;101181.97;;;16.88;100.00
59103;BME280;43999;51.660;5.616;2022-08-19T05:02:50;101183.91;;;16.86;100.00
59103;BME280;43999;51.660;5.616;2022-08-19T05:05:18;101185.78;;;16.84;100.00
59103;BME280;43999;51.660;5.616;2022-08-19T05:07:46;101176.03;;;16.84;100.00
59103;BME280;43999;51.660;5.616;2022-08-19T05:10:14;101186.63;;;16.84;100.00
59103;BME280;43999;51.660;5.616;2022-08-19T05:12:41;101185.78;;;16.84;100.00
59103;BME280;43999;51.660;5.616;2022-08-19T05:15:09;101195.50;;;16.83;100.00
59103;BME280;43999;51.660;5.616;2022-08-19T05:17:36;101199.13;;;16.82;100.00
59103;BME280;43999;51.660;5.616;2022-08-19T05:20:07;101206.22;;;16.82;100.00
59103;BME280;43999;51.660;5.616;2022-08-19T05:22:54;101194.78;;;16.81;100.00
59103;BME280;43999;51.660;5.616;2022-08-19T05:25:22;101202.84;;;16.80;100.00
59103;BME280;43999;51.660;5.616;2022-08-19T05:27:51;101200.09;;;16.81;100.00
59103;BME280;43999;51.660;5.616;2022-08-19T05:30:18;101207.19;;;16.81;100.00
59103;BME280;43999;51.660;5.616;2022-08-19T05:33:07;101204.66;;;16.79;100.00
59103;BME280;43999;51.660;5.616;2022-08-19T05:35:38;101214.28;;;16.80;100.00
59103;BME280;43999;51.660;5.616;2022-08-19T05:38:07;101213.53;;;16.78;100.00
59103;BME280;43999;51.660;5.616;2022-08-19T05:40:36;101225.84;;;16.79;100.00
59103;BME280;43999;51.660;5.616;2022-08-19T05:43:06;101219.56;;;16.80;100.00
59103;BME280;43999;51.660;5.616;2022-08-19T05:45:40;101222.22;;;16.80;100.00
59103;BME280;43999;51.660;5.616;2022-08-19T05:48:10;101225.59;;;16.82;100.00
59103;BME280;43999;51.660;5.616;2022-08-19T05:50:41;101221.97;;;16.83;100.00
59103;BME280;43999;51.660;5.616;2022-08-19T05:53:08;101220.94;;;16.86;100.00
59103;BME280;43999;51.660;5.616;2022-08-19T05:55:36;101217.44;;;16.85;100.00
59103;BME280;43999;51.660;5.616;2022-08-19T05:58:05;101228.03;;;16.85;100.00
59103;BME280;43999;51.660;5.616;2022-08-19T06:00:36;101219.13;;;16.87;100.00
59103;BME280;43999;51.660;5.616;2022-08-19T06:03:04;101215.44;;;16.89;100.00
59103;BME280;43999;51.660;5.616;2022-08-19T06:05:38;101217.00;;;16.92;100.00
59103;BME280;43999;51.660;5.616;2022-08-19T06:08:18;101215.91;;;16.94;100.00
59103;BME280;43999;51.660;5.616;2022-08-19T06:11:41;101211.16;;;16.99;100.00
59103;BME280;43999;51.660;5.616;2022-08-19T06:14:17;101209.94;;;17.03;100.00
59103;BME280;43999;51.660;5.616;2022-08-19T06:16:53;101207.91;;;17.07;100.00
59103;BME280;43999;51.660;5.616;2022-08-19T06:19:22;101205.16;;;17.09;100.00
59103;BME280;43999;51.660;5.616;2022-08-19T06:21:52;101208.28;;;17.14;100.00
59103;BME280;43999;51.660;5.616;2022-08-19T06:24:23;101215.88;;;17.18;100.00
59103;BME280;43999;51.660;5.616;2022-08-19T06:26:54;101219.13;;;17.22;100.00
59103;BME280;43999;51.660;5.616;2022-08-19T06:29:28;101213.25;;;17.30;100.00
59103;BME280;43999;51.660;5.616;2022-08-19T06:31:59;101216.16;;;17.38;100.00
59103;BME280;43999;51.660;5.616;2022-08-19T06:34:33;101210.50;;;17.43;100.00
59103;BME280;43999;51.660;5.616;2022-08-19T06:37:04;101208.25;;;17.49;100.00
59103;BME280;43999;51.660;5.616;2022-08-19T06:39:36;101200.66;;;17.56;100.00
59103;BME280;43999;51.660;5.616;2022-08-19T06:42:07;101197.53;;;17.62;100.00
59103;BME280;43999;51.660;5.616;2022-08-19T06:44:40;101204.03;;;17.69;100.00
59103;BME280;43999;51.660;5.616;2022-08-19T06:47:20;101198.13;;;17.77;100.00
59103;BME280;43999;51.660;5.616;2022-08-19T06:49:54;101205.09;;;17.78;100.00
59103;BME280;43999;51.660;5.616;2022-08-19T06:52:32;101217.03;;;17.84;100.00
59103;BME280;43999;51.660;5.616;2022-08-19T06:55:05;101216.72;;;17.88;100.00
59103;BME280;43999;51.660;5.616;2022-08-19T06:57:33;101214.28;;;17.97;100.00
59103;BME280;43999;51.660;5.616;2022-08-19T07:00:03;101216.34;;;18.04;100.00
59103;BME280;43999;51.660;5.616;2022-08-19T07:02:43;101219.94;;;18.15;100.00
59103;BME280;43999;51.660;5.616;2022-08-19T07:05:22;101213.91;;;18.24;100.00
59103;BME280;43999;51.660;5.616;2022-08-19T07:07:49;101216.53;;;18.35;100.00
59103;BME280;43999;51.660;5.616;2022-08-19T07:10:17;101210.59;;;18.43;100.00
59103;BME280;43999;51.660;5.616;2022-08-19T07:12:46;101214.44;;;18.50;100.00
59103;BME280;43999;51.660;5.616;2022-08-19T07:15:13;101213.94;;;18.56;100.00
59103;BME280;43999;51.660;5.616;2022-08-19T07:17:42;101215.22;;;18.62;100.00
59103;BME280;43999;51.660;5.616;2022-08-19T07:20:11;101219.91;;;18.70;100.00
59103;BME280;43999;51.660;5.616;2022-08-19T07:22:39;101222.19;;;18.74;100.00
59103;BME280;43999;51.660;5.616;2022-08-19T07:25:09;101223.75;;;18.77;100.00
59103;BME280;43999;51.660;5.616;2022-08-19T07:27:36;101228.94;;;18.78;100.00
59103;BME280;43999;51.660;5.616;2022-08-19T07:30:08;101229.38;;;18.84;100.00
59103;BME280;43999;51.660;5.616;2022-08-19T07:32:39;101235.78;;;18.92;100.00
59103;BME280;43999;51.660;5.616;2022-08-19T07:35:08;101233.34;;;19.01;100.00
59103;BME280;43999;51.660;5.616;2022-08-19T07:37:36;101243.78;;;19.13;100.00
59103;BME280;43999;51.660;5.616;2022-08-19T07:40:07;101238.41;;;19.25;100.00
59103;BME280;43999;51.660;5.616;2022-08-19T07:42:35;101232.06;;;19.37;100.00
59103;BME280;43999;51.660;5.616;2022-08-19T07:45:05;101242.88;;;19.45;100.00
59103;BME280;43999;51.660;5.616;2022-08-19T07:47:33;101234.75;;;19.47;100.00
59103;BME280;43999;51.660;5.616;2022-08-19T07:50:18;101242.03;;;19.45;100.00
59103;BME280;43999;51.660;5.616;2022-08-19T07:52:49;101245.41;;;19.47;100.00
59103;BME280;43999;51.660;5.616;2022-08-19T07:55:23;101245.66;;;19.44;100.00
59103;BME280;43999;51.660;5.616;2022-08-19T07:58:11;101255.59;;;19.42;100.00
59103;BME280;43999;51.660;5.616;2022-08-19T08:00:42;101254.38;;;19.46;100.00
59103;BME280;43999;51.660;5.616;2022-08-19T08:03:12;101256.63;;;19.50;100.00
59103;BME280;43999;51.660;5.616;2022-08-19T08:05:40;101252.84;;;19.53;100.00
59103;BME280;43999;51.660;5.616;2022-08-19T08:08:27;101244.47;;;19.58;100.00
59103;BME280;43999;51.660;5.616;2022-08-19T08:11:18;101250.13;;;19.64;100.00
59103;BME280;43999;51.660;5.616;2022-08-19T08:13:49;101254.91;;;19.70;100.00
59103;BME280;43999;51.660;5.616;2022-08-19T08:16:37;101254.13;;;19.80;100.00
59103;BME280;43999;51.660;5.616;2022-08-19T08:19:14;101260.47;;;19.88;100.00
59103;BME280;43999;51.660;5.616;2022-08-19T08:21:54;101255.31;;;19.97;100.00
59103;BME280;43999;51.660;5.616;2022-08-19T08:24:25;101260.44;;;20.10;100.00
59103;BME280;43999;51.660;5.616;2022-08-19T08:26:59;101261.88;;;20.23;100.00
59103;BME280;43999;51.660;5.616;2022-08-19T08:29:30;101277.47;;;20.38;100.00
59103;BME280;43999;51.660;5.616;2022-08-19T08:32:01;101279.59;;;20.54;100.00
59103;BME280;43999;51.660;5.616;2022-08-19T08:34:43;101282.75;;;20.69;100.00
59103;BME280;43999;51.660;5.616;2022-08-19T08:37:13;101287.94;;;20.70;100.00
59103;BME280;43999;51.660;5.616;2022-08-19T08:39:42;101277.81;;;20.74;100.00
59103;BME280;43999;51.660;5.616;2022-08-19T08:42:29;101284.84;;;20.75;100.00
59103;BME280;43999;51.660;5.616;2022-08-19T08:45:13;101281.50;;;20.92;100.00
59103;BME280;43999;51.660;5.616;2022-08-19T08:47:48;101293.56;;;21.26;100.00
59103;BME280;43999;51.660;5.616;2022-08-19T08:50:40;101303.63;;;21.42;100.00
59103;BME280;43999;51.660;5.616;2022-08-19T08:53:10;101303.88;;;21.48;100.00
59103;BME280;43999;51.660;5.616;2022-08-19T08:55:55;101301.13;;;21.50;100.00
59103;BME280;43999;51.660;5.616;2022-08-19T09:01:10;101306.44;;;21.60;100.00
59103;BME280;43999;51.660;5.616;2022-08-19T09:03:40;101302.38;;;21.56;100.00
59103;BME280;43999;51.660;5.616;2022-08-19T09:10:32;101298.16;;;21.43;100.00
59103;BME280;43999;51.660;5.616;2022-08-19T09:16:22;101304.59;;;21.41;100.00
59103;BME280;43999;51.660;5.616;2022-08-19T09:19:03;101295.09;;;21.38;100.00
59103;BME280;43999;51.660;5.616;2022-08-19T09:21:32;101298.19;;;21.34;100.00
59103;BME280;43999;51.660;5.616;2022-08-19T09:24:02;101298.72;;;21.37;100.00
59103;BME280;43999;51.660;5.616;2022-08-19T09:26:32;101305.75;;;21.38;100.00
59103;BME280;43999;51.660;5.616;2022-08-19T09:29:18;101303.22;;;21.37;100.00
59103;BME280;43999;51.660;5.616;2022-08-19T09:31:48;101300.28;;;21.40;100.00
59103;BME280;43999;51.660;5.616;2022-08-19T09:34:17;101307.25;;;21.70;100.00
59103;BME280;43999;51.660;5.616;2022-08-19T09:36:49;101303.72;;;21.79;100.00
59103;BME280;43999;51.660;5.616;2022-08-19T09:39:21;101310.06;;;21.78;98.28
59103;BME280;43999;51.660;5.616;2022-08-19T09:41:49;101311.75;;;21.70;98.49
59103;BME280;43999;51.660;5.616;2022-08-19T09:44:17;101318.63;;;21.62;99.02
59103;BME280;43999;51.660;5.616;2022-08-19T09:46:48;101317.69;;;21.54;99.04
59103;BME280;43999;51.660;5.616;2022-08-19T09:49:18;101310.38;;;21.46;99.93
59103;BME280;43999;51.660;5.616;2022-08-19T09:51:52;101311.47;;;21.43;100.00
59103;BME280;43999;51.660;5.616;2022-08-19T09:54:21;101307.13;;;21.42;100.00
59103;BME280;43999;51.660;5.616;2022-08-19T09:56:55;101315.84;;;21.44;100.00
59103;BME280;43999;51.660;5.616;2022-08-19T09:59:26;101314.84;;;21.45;100.00
59103;BME280;43999;51.660;5.616;2022-08-19T10:01:58;101322.56;;;21.48;100.00
59103;BME280;43999;51.660;5.616;2022-08-19T10:04:36;101312.84;;;21.87;100.00
59103;BME280;43999;51.660;5.616;2022-08-19T10:07:22;101313.44;;;22.46;100.00
59103;BME280;43999;51.660;5.616;2022-08-19T10:10:06;101312.91;;;23.06;93.83
59103;BME280;43999;51.660;5.616;2022-08-19T10:12:36;101310.53;;;23.39;91.03
59103;BME280;43999;51.660;5.616;2022-08-19T10:15:05;101324.31;;;23.70;88.77
59103;BME280;43999;51.660;5.616;2022-08-19T10:17:33;101315.31;;;24.06;88.21
59103;BME280;43999;51.660;5.616;2022-08-19T10:20:03;101318.66;;;24.34;83.74
59103;BME280;43999;51.660;5.616;2022-08-19T10:22:31;101311.44;;;24.26;82.00
59103;BME280;43999;51.660;5.616;2022-08-19T10:24:58;101308.66;;;24.10;81.26
59103;BME280;43999;51.660;5.616;2022-08-19T10:27:26;101314.47;;;23.97;81.66
59103;BME280;43999;51.660;5.616;2022-08-19T10:29:58;101311.94;;;23.95;82.60
59103;BME280;43999;51.660;5.616;2022-08-19T10:32:26;101312.44;;;23.91;82.18
59103;BME280;43999;51.660;5.616;2022-08-19T10:35:01;101311.22;;;23.85;82.67
59103;BME280;43999;51.660;5.616;2022-08-19T10:37:32;101309.34;;;23.86;83.24
59103;BME280;43999;51.660;5.616;2022-08-19T10:40:05;101307.84;;;23.83;82.88
59103;BME280;43999;51.660;5.616;2022-08-19T10:42:35;101318.47;;;23.75;82.72
59103;BME280;43999;51.660;5.616;2022-08-19T10:45:04;101309.56;;;23.66;82.53
59103;BME280;43999;51.660;5.616;2022-08-19T10:47:33;101309.59;;;23.48;82.51
59103;BME280;43999;51.660;5.616;2022-08-19T10:50:01;101314.53;;;23.35;83.44
59103;BME280;43999;51.660;5.616;2022-08-19T10:52:54;101304.91;;;23.24;84.77
59103;BME280;43999;51.660;5.616;2022-08-19T10:55:24;101307.34;;;23.17;84.81
59103;BME280;43999;51.660;5.616;2022-08-19T10:58:19;101302.38;;;23.04;86.37
59103;BME280;43999;51.660;5.616;2022-08-19T11:00:57;101297.94;;;22.95;87.61
59103;BME280;43999;51.660;5.616;2022-08-19T11:03:26;101296.25;;;22.94;88.48
59103;BME280;43999;51.660;5.616;2022-08-19T11:06:04;101287.63;;;23.00;89.07
59103;BME280;43999;51.660;5.616;2022-08-19T11:08:34;101292.78;;;23.12;88.60
59103;BME280;43999;51.660;5.616;2022-08-19T11:11:06;101290.69;;;23.23;87.90
59103;BME280;43999;51.660;5.616;2022-08-19T11:13:38;101300.16;;;23.36;87.64
59103;BME280;43999;51.660;5.616;2022-08-19T11:16:15;101291.31;;;23.61;86.39
59103;BME280;43999;51.660;5.616;2022-08-19T11:18:51;101284.63;;;23.92;83.67
59103;BME280;43999;51.660;5.616;2022-08-19T11:21:25;101289.28;;;24.16;82.21
59103;BME280;43999;51.660;5.616;2022-08-19T11:23:57;101295.19;;;24.28;82.27
59103;BME280;43999;51.660;5.616;2022-08-19T11:26:29;101297.19;;;24.68;79.72
59103;BME280;43999;51.660;5.616;2022-08-19T11:28:58;101296.53;;;24.83;78.14
59103;BME280;43999;51.660;5.616;2022-08-19T11:31:31;101300.91;;;25.00;76.47
59103;BME280;43999;51.660;5.616;2022-08-19T11:34:06;101290.84;;;25.02;75.52
59103;BME280;43999;51.660;5.616;2022-08-19T11:36:38;101291.84;;;24.93;75.40
59103;BME280;43999;51.660;5.616;2022-08-19T11:39:09;101274.75;;;24.78;75.56
59103;BME280;43999;51.660;5.616;2022-08-19T11:41:38;101277.44;;;24.69;75.08
59103;BME280;43999;51.660;5.616;2022-08-19T11:44:06;101281.56;;;24.56;74.48
59103;BME280;43999;51.660;5.616;2022-08-19T11:46:36;101281.69;;;24.46;76.28
59103;BME280;43999;51.660;5.616;2022-08-19T11:49:05;101280.03;;;24.45;76.97
59103;BME280;43999;51.660;5.616;2022-08-19T11:51:40;101278.34;;;24.52;77.17
59103;BME280;43999;51.660;5.616;2022-08-19T11:54:13;101279.03;;;24.54;76.69
59103;BME280;43999;51.660;5.616;2022-08-19T11:56:44;101274.66;;;24.53;76.55
59103;BME280;43999;51.660;5.616;2022-08-19T11:59:13;101282.91;;;24.60;76.27
59103;BME280;43999;51.660;5.616;2022-08-19T12:01:41;101281.09;;;24.60;75.14
59103;BME280;43999;51.660;5.616;2022-08-19T12:04:10;101289.06;;;24.52;74.35
59103;BME280;43999;51.660;5.616;2022-08-19T12:06:39;101283.34;;;24.39;75.28
59103;BME280;43999;51.660;5.616;2022-08-19T12:09:09;101290.34;;;24.40;75.59
59103;BME280;43999;51.660;5.616;2022-08-19T12:11:38;101280.19;;;24.43;74.78
59103;BME280;43999;51.660;5.616;2022-08-19T12:14:09;101283.22;;;24.57;75.28
59103;BME280;43999;51.660;5.616;2022-08-19T12:16:41;101286.47;;;24.68;74.87
59103;BME280;43999;51.660;5.616;2022-08-19T12:19:22;101281.47;;;24.82;73.20
59103;BME280;43999;51.660;5.616;2022-08-19T12:21:51;101291.53;;;24.88;72.52
59103;BME280;43999;51.660;5.616;2022-08-19T12:24:22;101287.81;;;24.89;72.33
59103;BME280;43999;51.660;5.616;2022-08-19T12:26:51;101287.47;;;24.92;72.50
59103;BME280;43999;51.660;5.616;2022-08-19T12:29:21;101282.13;;;24.92;72.26
59103;BME280;43999;51.660;5.616;2022-08-19T12:31:50;101276.94;;;24.91;72.00
59103;BME280;43999;51.660;5.616;2022-08-19T12:34:18;101281.78;;;24.87;71.48
59103;BME280;43999;51.660;5.616;2022-08-19T12:36:47;101282.13;;;24.84;71.37
59103;BME280;43999;51.660;5.616;2022-08-19T12:39:16;101269.72;;;24.75;71.43
59103;BME280;43999;51.660;5.616;2022-08-19T12:41:43;101273.06;;;24.77;72.75
59103;BME280;43999;51.660;5.616;2022-08-19T12:44:22;101262.22;;;24.86;72.46
59103;BME280;43999;51.660;5.616;2022-08-19T12:46:58;101263.03;;;24.95;72.13
59103;BME280;43999;51.660;5.616;2022-08-19T12:49:31;101264.38;;;25.08;72.23
59103;BME280;43999;51.660;5.616;2022-08-19T12:52:24;101268.06;;;25.15;72.05
59103;BME280;43999;51.660;5.616;2022-08-19T12:54:58;101253.63;;;25.16;71.31
59103;BME280;43999;51.660;5.616;2022-08-19T12:57:29;101256.66;;;25.13;71.25
59103;BME280;43999;51.660;5.616;2022-08-19T13:00:26;101257.50;;;25.13;71.97
59103;BME280;43999;51.660;5.616;2022-08-19T13:02:55;101250.44;;;25.20;71.04
59103;BME280;43999;51.660;5.616;2022-08-19T13:05:32;101257.00;;;25.34;71.77
59103;BME280;43999;51.660;5.616;2022-08-19T13:08:03;101251.31;;;25.46;71.48
59103;BME280;43999;51.660;5.616;2022-08-19T13:10:33;101247.25;;;25.50;71.08
59103;BME280;43999;51.660;5.616;2022-08-19T13:13:05;101250.75;;;25.58;71.24
59103;BME280;43999;51.660;5.616;2022-08-19T13:15:38;101249.72;;;25.68;70.52
59103;BME280;43999;51.660;5.616;2022-08-19T13:18:09;101245.88;;;25.70;70.30
59103;BME280;43999;51.660;5.616;2022-08-19T13:20:38;101245.41;;;25.58;70.26